sensor_id;sensor_type;location;lat;lon;timestamp;P1;durP1;ratioP1;P2;durP2;ratioP2
8683;SDS011;4379;59.744;18.206;2023-03-14T00:02:14;4.40;;;2.40;;
8683;SDS011;4379;59.744;18.206;2023-03-14T00:04:42;3.63;;;2.33;;
8683;SDS011;4379;59.744;18.206;2023-03-14T00:07:12;2.70;;;2.03;;
8683;SDS011;4379;59.744;18.206;2023-03-14T00:09:40;2.87;;;1.73;;
8683;SDS011;4379;59.744;18.206;2023-03-14T00:12:08;3.20;;;2.23;;
8683;SDS011;4379;59.744;18.206;2023-03-14T00:14:35;2.20;;;1.77;;
8683;SDS011;4379;59.744;18.206;2023-03-14T00:17:02;4.00;;;2.00;;
8683;SDS011;4379;59.744;18.206;2023-03-14T00:19:30;2.17;;;1.90;;
8683;SDS011;4379;59.744;18.206;2023-03-14T00:21:57;3.23;;;1.93;;
8683;SDS011;4379;59.744;18.206;2023-03-14T00:24:24;3.47;;;2.07;;
8683;SDS011;4379;59.744;18.206;2023-03-14T00:26:52;5.23;;;1.97;;
8683;SDS011;4379;59.744;18.206;2023-03-14T00:29:19;3.37;;;2.00;;
8683;SDS011;4379;59.744;18.206;2023-03-14T00:31:46;4.30;;;2.17;;
8683;SDS011;4379;59.744;18.206;2023-03-14T00:34:13;2.77;;;2.20;;
8683;SDS011;4379;59.744;18.206;2023-03-14T00:36:44;2.90;;;2.27;;
8683;SDS011;4379;59.744;18.206;2023-03-14T00:39:11;5.23;;;2.20;;
8683;SDS011;4379;59.744;18.206;2023-03-14T00:41:38;2.27;;;2.03;;
8683;SDS011;4379;59.744;18.206;2023-03-14T00:44:05;2.93;;;1.70;;
8683;SDS011;4379;59.744;18.206;2023-03-14T00:46:32;2.43;;;1.93;;
8683;SDS011;4379;59.744;18.206;2023-03-14T00:49:00;1.70;;;1.60;;
8683;SDS011;4379;59.744;18.206;2023-03-14T00:51:27;4.50;;;2.30;;
8683;SDS011;4379;59.744;18.206;2023-03-14T00:53:54;3.37;;;2.00;;
8683;SDS011;4379;59.744;18.206;2023-03-14T00:56:22;2.10;;;1.60;;
8683;SDS011;4379;59.744;18.206;2023-03-14T00:58:52;3.47;;;1.50;;
8683;SDS011;4379;59.744;18.206;2023-03-14T01:01:20;2.23;;;2.03;;
8683;SDS011;4379;59.744;18.206;2023-03-14T01:03:51;2.17;;;1.47;;
8683;SDS011;4379;59.744;18.206;2023-03-14T01:06:20;1.80;;;1.70;;
8683;SDS011;4379;59.744;18.206;2023-03-14T01:08:49;2.17;;;1.60;;
8683;SDS011;4379;59.744;18.206;2023-03-14T01:11:18;1.87;;;1.77;;
8683;SDS011;4379;59.744;18.206;2023-03-14T01:13:48;1.83;;;1.47;;
8683;SDS011;4379;59.744;18.206;2023-03-14T01:16:16;2.47;;;1.60;;
8683;SDS011;4379;59.744;18.206;2023-03-14T01:18:46;2.20;;;1.60;;
8683;SDS011;4379;59.744;18.206;2023-03-14T01:21:14;4.93;;;1.60;;
8683;SDS011;4379;59.744;18.206;2023-03-14T01:23:47;3.13;;;1.60;;
8683;SDS011;4379;59.744;18.206;2023-03-14T01:26:16;1.87;;;1.47;;
8683;SDS011;4379;59.744;18.206;2023-03-14T01:28:45;3.00;;;1.80;;
8683;SDS011;4379;59.744;18.206;2023-03-14T01:31:14;2.10;;;1.83;;
8683;SDS011;4379;59.744;18.206;2023-03-14T01:33:41;1.80;;;1.50;;
8683;SDS011;4379;59.744;18.206;2023-03-14T01:36:09;3.07;;;2.10;;
8683;SDS011;4379;59.744;18.206;2023-03-14T01:38:38;3.20;;;1.60;;
8683;SDS011;4379;59.744;18.206;2023-03-14T01:41:06;2.63;;;1.53;;
8683;SDS011;4379;59.744;18.206;2023-03-14T01:43:35;2.87;;;1.70;;
8683;SDS011;4379;59.744;18.206;2023-03-14T01:51:02;1.67;;;1.57;;
8683;SDS011;4379;59.744;18.206;2023-03-14T01:53:35;3.20;;;2.00;;
8683;SDS011;4379;59.744;18.206;2023-03-14T01:56:04;2.50;;;1.83;;
8683;SDS011;4379;59.744;18.206;2023-03-14T01:58:33;5.30;;;2.27;;
8683;SDS011;4379;59.744;18.206;2023-03-14T02:01:02;4.73;;;2.33;;
8683;SDS011;4379;59.744;18.206;2023-03-14T02:03:30;3.57;;;2.00;;
8683;SDS011;4379;59.744;18.206;2023-03-14T02:06:06;3.80;;;2.20;;
8683;SDS011;4379;59.744;18.206;2023-03-14T02:08:34;4.10;;;1.67;;
8683;SDS011;4379;59.744;18.206;2023-03-14T02:11:04;2.87;;;1.80;;
8683;SDS011;4379;59.744;18.206;2023-03-14T02:13:33;3.63;;;2.10;;
8683;SDS011;4379;59.744;18.206;2023-03-14T02:16:01;1.83;;;1.43;;
8683;SDS011;4379;59.744;18.206;2023-03-14T02:18:29;2.67;;;1.60;;
8683;SDS011;4379;59.744;18.206;2023-03-14T02:20:59;3.60;;;1.83;;
8683;SDS011;4379;59.744;18.206;2023-03-14T02:26:44;2.20;;;2.00;;
8683;SDS011;4379;59.744;18.206;2023-03-14T02:29:30;2.40;;;1.70;;
8683;SDS011;4379;59.744;18.206;2023-03-14T02:32:00;3.33;;;2.37;;
8683;SDS011;4379;59.744;18.206;2023-03-14T02:34:28;3.30;;;2.13;;
8683;SDS011;4379;59.744;18.206;2023-03-14T02:36:57;2.90;;;1.97;;
8683;SDS011;4379;59.744;18.206;2023-03-14T02:39:40;2.53;;;1.90;;
8683;SDS011;4379;59.744;18.206;2023-03-14T02:42:12;2.77;;;1.57;;
8683;SDS011;4379;59.744;18.206;2023-03-14T02:44:53;1.60;;;1.50;;
8683;SDS011;4379;59.744;18.206;2023-03-14T02:47:52;3.07;;;1.50;;
8683;SDS011;4379;59.744;18.206;2023-03-14T02:50:26;3.80;;;1.53;;
8683;SDS011;4379;59.744;18.206;2023-03-14T02:52:57;1.83;;;1.30;;
8683;SDS011;4379;59.744;18.206;2023-03-14T02:55:24;1.33;;;1.20;;
8683;SDS011;4379;59.744;18.206;2023-03-14T02:57:53;1.90;;;1.30;;
8683;SDS011;4379;59.744;18.206;2023-03-14T03:00:20;1.33;;;1.20;;
8683;SDS011;4379;59.744;18.206;2023-03-14T03:02:48;2.13;;;1.60;;
8683;SDS011;4379;59.744;18.206;2023-03-14T03:05:15;1.57;;;1.23;;
8683;SDS011;4379;59.744;18.206;2023-03-14T03:07:42;3.27;;;1.30;;
8683;SDS011;4379;59.744;18.206;2023-03-14T03:10:10;2.03;;;1.30;;
8683;SDS011;4379;59.744;18.206;2023-03-14T03:12:37;2.37;;;1.50;;
8683;SDS011;4379;59.744;18.206;2023-03-14T03:15:04;1.40;;;1.00;;
8683;SDS011;4379;59.744;18.206;2023-03-14T03:17:34;2.47;;;1.20;;
8683;SDS011;4379;59.744;18.206;2023-03-14T03:20:01;0.80;;;0.80;;
8683;SDS011;4379;59.744;18.206;2023-03-14T03:22:31;0.90;;;0.90;;
8683;SDS011;4379;59.744;18.206;2023-03-14T03:24:59;0.90;;;0.90;;
8683;SDS011;4379;59.744;18.206;2023-03-14T03:27:26;2.57;;;0.90;;
8683;SDS011;4379;59.744;18.206;2023-03-14T03:29:56;0.80;;;0.60;;
8683;SDS011;4379;59.744;18.206;2023-03-14T03:32:23;2.03;;;0.67;;
8683;SDS011;4379;59.744;18.206;2023-03-14T03:34:51;2.50;;;0.70;;
8683;SDS011;4379;59.744;18.206;2023-03-14T03:37:18;0.90;;;0.90;;
8683;SDS011;4379;59.744;18.206;2023-03-14T03:39:45;2.03;;;1.00;;
8683;SDS011;4379;59.744;18.206;2023-03-14T03:42:13;1.00;;;0.90;;
8683;SDS011;4379;59.744;18.206;2023-03-14T03:44:40;1.10;;;1.00;;
8683;SDS011;4379;59.744;18.206;2023-03-14T03:47:08;2.17;;;0.90;;
8683;SDS011;4379;59.744;18.206;2023-03-14T03:49:35;1.97;;;0.87;;
8683;SDS011;4379;59.744;18.206;2023-03-14T03:52:02;1.43;;;0.80;;
8683;SDS011;4379;59.744;18.206;2023-03-14T03:54:29;1.10;;;1.00;;
8683;SDS011;4379;59.744;18.206;2023-03-14T03:56:57;1.93;;;0.90;;
8683;SDS011;4379;59.744;18.206;2023-03-14T03:59:24;0.80;;;0.70;;
8683;SDS011;4379;59.744;18.206;2023-03-14T04:01:51;1.83;;;0.63;;
8683;SDS011;4379;59.744;18.206;2023-03-14T04:04:18;1.27;;;0.93;;
8683;SDS011;4379;59.744;18.206;2023-03-14T04:06:46;4.07;;;1.10;;
8683;SDS011;4379;59.744;18.206;2023-03-14T04:09:13;2.50;;;1.13;;
8683;SDS011;4379;59.744;18.206;2023-03-14T04:11:41;3.30;;;1.30;;
8683;SDS011;4379;59.744;18.206;2023-03-14T04:14:09;2.20;;;1.10;;
8683;SDS011;4379;59.744;18.206;2023-03-14T04:16:36;3.47;;;1.40;;
8683;SDS011;4379;59.744;18.206;2023-03-14T04:19:03;3.17;;;1.23;;
8683;SDS011;4379;59.744;18.206;2023-03-14T04:21:30;1.67;;;1.23;;
8683;SDS011;4379;59.744;18.206;2023-03-14T04:23:57;1.93;;;1.33;;
8683;SDS011;4379;59.744;18.206;2023-03-14T04:26:25;5.63;;;1.53;;
8683;SDS011;4379;59.744;18.206;2023-03-14T04:28:52;2.90;;;1.40;;
8683;SDS011;4379;59.744;18.206;2023-03-14T04:31:20;7.33;;;1.87;;
8683;SDS011;4379;59.744;18.206;2023-03-14T04:33:48;2.50;;;1.33;;
8683;SDS011;4379;59.744;18.206;2023-03-14T04:36:15;3.33;;;1.77;;
8683;SDS011;4379;59.744;18.206;2023-03-14T04:38:43;5.63;;;1.67;;
8683;SDS011;4379;59.744;18.206;2023-03-14T04:41:10;4.23;;;1.53;;
8683;SDS011;4379;59.744;18.206;2023-03-14T04:43:37;3.13;;;1.80;;
8683;SDS011;4379;59.744;18.206;2023-03-14T04:46:05;5.47;;;1.60;;
8683;SDS011;4379;59.744;18.206;2023-03-14T04:48:32;3.73;;;1.80;;
8683;SDS011;4379;59.744;18.206;2023-03-14T04:50:59;4.40;;;2.23;;
8683;SDS011;4379;59.744;18.206;2023-03-14T04:53:26;2.43;;;1.40;;
8683;SDS011;4379;59.744;18.206;2023-03-14T04:55:54;6.80;;;1.83;;
8683;SDS011;4379;59.744;18.206;2023-03-14T04:58:22;2.70;;;1.70;;
8683;SDS011;4379;59.744;18.206;2023-03-14T05:00:50;2.00;;;1.40;;
8683;SDS011;4379;59.744;18.206;2023-03-14T05:03:18;2.47;;;1.53;;
8683;SDS011;4379;59.744;18.206;2023-03-14T05:05:45;3.10;;;1.33;;
8683;SDS011;4379;59.744;18.206;2023-03-14T05:08:13;3.33;;;1.50;;
8683;SDS011;4379;59.744;18.206;2023-03-14T05:10:40;3.53;;;1.27;;
8683;SDS011;4379;59.744;18.206;2023-03-14T05:13:07;2.43;;;1.20;;
8683;SDS011;4379;59.744;18.206;2023-03-14T05:15:35;3.03;;;1.40;;
8683;SDS011;4379;59.744;18.206;2023-03-14T05:18:02;2.83;;;1.33;;
8683;SDS011;4379;59.744;18.206;2023-03-14T05:20:30;2.50;;;1.03;;
8683;SDS011;4379;59.744;18.206;2023-03-14T05:22:57;2.00;;;0.90;;
8683;SDS011;4379;59.744;18.206;2023-03-14T05:25:25;1.20;;;1.00;;
8683;SDS011;4379;59.744;18.206;2023-03-14T05:27:55;3.53;;;0.97;;
8683;SDS011;4379;59.744;18.206;2023-03-14T05:30:23;1.57;;;1.33;;
8683;SDS011;4379;59.744;18.206;2023-03-14T05:32:50;1.50;;;1.10;;
8683;SDS011;4379;59.744;18.206;2023-03-14T05:35:18;2.47;;;1.10;;
8683;SDS011;4379;59.744;18.206;2023-03-14T05:37:45;1.43;;;1.03;;
8683;SDS011;4379;59.744;18.206;2023-03-14T05:40:12;1.10;;;1.00;;
8683;SDS011;4379;59.744;18.206;2023-03-14T05:42:40;2.80;;;0.97;;
8683;SDS011;4379;59.744;18.206;2023-03-14T05:45:07;3.33;;;1.00;;
8683;SDS011;4379;59.744;18.206;2023-03-14T05:47:34;3.43;;;1.10;;
8683;SDS011;4379;59.744;18.206;2023-03-14T05:50:01;2.60;;;1.17;;
8683;SDS011;4379;59.744;18.206;2023-03-14T05:52:29;3.47;;;1.20;;
8683;SDS011;4379;59.744;18.206;2023-03-14T05:54:56;1.23;;;1.00;;
8683;SDS011;4379;59.744;18.206;2023-03-14T05:57:23;1.70;;;1.20;;
8683;SDS011;4379;59.744;18.206;2023-03-14T05:59:50;1.57;;;1.10;;
8683;SDS011;4379;59.744;18.206;2023-03-14T06:02:18;1.63;;;0.63;;
8683;SDS011;4379;59.744;18.206;2023-03-14T06:04:45;1.37;;;0.80;;
8683;SDS011;4379;59.744;18.206;2023-03-14T06:07:12;2.37;;;0.90;;
8683;SDS011;4379;59.744;18.206;2023-03-14T06:09:40;1.90;;;1.03;;
8683;SDS011;4379;59.744;18.206;2023-03-14T06:12:07;2.80;;;0.77;;
8683;SDS011;4379;59.744;18.206;2023-03-14T06:14:35;3.77;;;0.93;;
8683;SDS011;4379;59.744;18.206;2023-03-14T06:17:02;1.97;;;0.80;;
8683;SDS011;4379;59.744;18.206;2023-03-14T06:19:30;1.40;;;0.97;;
8683;SDS011;4379;59.744;18.206;2023-03-14T06:21:57;0.77;;;0.77;;
8683;SDS011;4379;59.744;18.206;2023-03-14T06:24:24;2.77;;;1.03;;
8683;SDS011;4379;59.744;18.206;2023-03-14T06:26:51;2.20;;;0.93;;
8683;SDS011;4379;59.744;18.206;2023-03-14T06:29:18;1.53;;;0.60;;
8683;SDS011;4379;59.744;18.206;2023-03-14T06:31:46;0.73;;;0.70;;
8683;SDS011;4379;59.744;18.206;2023-03-14T06:34:13;0.83;;;0.50;;
8683;SDS011;4379;59.744;18.206;2023-03-14T06:36:40;1.07;;;0.70;;
8683;SDS011;4379;59.744;18.206;2023-03-14T06:39:07;0.40;;;0.40;;
8683;SDS011;4379;59.744;18.206;2023-03-14T06:41:35;0.87;;;0.70;;
8683;SDS011;4379;59.744;18.206;2023-03-14T06:44:02;0.73;;;0.57;;
8683;SDS011;4379;59.744;18.206;2023-03-14T06:46:29;0.70;;;0.40;;
8683;SDS011;4379;59.744;18.206;2023-03-14T06:48:57;0.80;;;0.50;;
8683;SDS011;4379;59.744;18.206;2023-03-14T06:51:24;0.83;;;0.50;;
8683;SDS011;4379;59.744;18.206;2023-03-14T06:53:51;1.27;;;0.50;;
8683;SDS011;4379;59.744;18.206;2023-03-14T06:56:19;0.77;;;0.60;;
8683;SDS011;4379;59.744;18.206;2023-03-14T06:58:46;1.13;;;0.60;;
8683;SDS011;4379;59.744;18.206;2023-03-14T07:01:25;1.00;;;0.60;;
8683;SDS011;4379;59.744;18.206;2023-03-14T07:03:54;0.63;;;0.60;;
8683;SDS011;4379;59.744;18.206;2023-03-14T07:06:22;0.77;;;0.30;;
8683;SDS011;4379;59.744;18.206;2023-03-14T07:08:49;0.40;;;0.40;;
8683;SDS011;4379;59.744;18.206;2023-03-14T07:11:17;0.50;;;0.40;;
8683;SDS011;4379;59.744;18.206;2023-03-14T07:13:44;0.30;;;0.30;;
8683;SDS011;4379;59.744;18.206;2023-03-14T07:16:11;0.97;;;0.60;;
8683;SDS011;4379;59.744;18.206;2023-03-14T07:18:39;0.43;;;0.43;;
8683;SDS011;4379;59.744;18.206;2023-03-14T07:21:07;0.67;;;0.67;;
8683;SDS011;4379;59.744;18.206;2023-03-14T07:23:35;0.30;;;0.30;;
8683;SDS011;4379;59.744;18.206;2023-03-14T07:26:03;0.73;;;0.47;;
8683;SDS011;4379;59.744;18.206;2023-03-14T07:28:31;0.30;;;0.30;;
8683;SDS011;4379;59.744;18.206;2023-03-14T07:30:58;0.37;;;0.37;;
8683;SDS011;4379;59.744;18.206;2023-03-14T07:33:25;0.43;;;0.30;;
8683;SDS011;4379;59.744;18.206;2023-03-14T07:35:52;0.13;;;0.13;;
8683;SDS011;4379;59.744;18.206;2023-03-14T07:38:20;0.40;;;0.37;;
8683;SDS011;4379;59.744;18.206;2023-03-14T07:40:48;0.20;;;0.20;;
8683;SDS011;4379;59.744;18.206;2023-03-14T07:43:16;0.10;;;0.10;;
8683;SDS011;4379;59.744;18.206;2023-03-14T07:45:46;0.30;;;0.30;;
8683;SDS011;4379;59.744;18.206;2023-03-14T07:48:16;0.23;;;0.23;;
8683;SDS011;4379;59.744;18.206;2023-03-14T07:50:47;0.20;;;0.20;;
8683;SDS011;4379;59.744;18.206;2023-03-14T07:53:15;0.77;;;0.63;;
8683;SDS011;4379;59.744;18.206;2023-03-14T07:55:42;0.57;;;0.57;;
8683;SDS011;4379;59.744;18.206;2023-03-14T07:58:10;0.30;;;0.30;;
8683;SDS011;4379;59.744;18.206;2023-03-14T08:00:37;0.30;;;0.30;;
8683;SDS011;4379;59.744;18.206;2023-03-14T08:03:05;0.30;;;0.30;;
8683;SDS011;4379;59.744;18.206;2023-03-14T08:05:35;0.30;;;0.30;;
8683;SDS011;4379;59.744;18.206;2023-03-14T08:08:04;0.37;;;0.37;;
8683;SDS011;4379;59.744;18.206;2023-03-14T08:10:32;0.30;;;0.30;;
8683;SDS011;4379;59.744;18.206;2023-03-14T08:13:00;0.30;;;0.30;;
8683;SDS011;4379;59.744;18.206;2023-03-14T08:15:29;0.20;;;0.20;;
8683;SDS011;4379;59.744;18.206;2023-03-14T08:17:57;0.23;;;0.23;;
8683;SDS011;4379;59.744;18.206;2023-03-14T08:20:26;0.30;;;0.30;;
8683;SDS011;4379;59.744;18.206;2023-03-14T08:22:55;0.30;;;0.20;;
8683;SDS011;4379;59.744;18.206;2023-03-14T08:25:24;0.20;;;0.20;;
8683;SDS011;4379;59.744;18.206;2023-03-14T08:27:52;0.23;;;0.23;;
8683;SDS011;4379;59.744;18.206;2023-03-14T08:30:20;0.23;;;0.23;;
8683;SDS011;4379;59.744;18.206;2023-03-14T08:32:49;0.30;;;0.30;;
8683;SDS011;4379;59.744;18.206;2023-03-14T08:35:16;0.20;;;0.20;;
8683;SDS011;4379;59.744;18.206;2023-03-14T08:37:43;0.60;;;0.23;;
8683;SDS011;4379;59.744;18.206;2023-03-14T08:40:11;0.47;;;0.30;;
8683;SDS011;4379;59.744;18.206;2023-03-14T08:42:39;0.27;;;0.27;;
8683;SDS011;4379;59.744;18.206;2023-03-14T08:45:07;0.30;;;0.30;;
8683;SDS011;4379;59.744;18.206;2023-03-14T08:47:37;0.20;;;0.20;;
8683;SDS011;4379;59.744;18.206;2023-03-14T08:50:05;0.27;;;0.27;;
8683;SDS011;4379;59.744;18.206;2023-03-14T08:52:33;0.23;;;0.23;;
8683;SDS011;4379;59.744;18.206;2023-03-14T08:55:00;0.30;;;0.30;;
8683;SDS011;4379;59.744;18.206;2023-03-14T08:57:28;0.27;;;0.27;;
8683;SDS011;4379;59.744;18.206;2023-03-14T08:59:55;0.63;;;0.20;;
8683;SDS011;4379;59.744;18.206;2023-03-14T09:02:24;0.20;;;0.20;;
8683;SDS011;4379;59.744;18.206;2023-03-14T09:04:52;0.20;;;0.20;;
8683;SDS011;4379;59.744;18.206;2023-03-14T09:07:20;0.87;;;0.40;;
8683;SDS011;4379;59.744;18.206;2023-03-14T09:09:47;0.20;;;0.20;;
8683;SDS011;4379;59.744;18.206;2023-03-14T09:12:15;0.20;;;0.20;;
8683;SDS011;4379;59.744;18.206;2023-03-14T09:14:42;0.30;;;0.30;;
8683;SDS011;4379;59.744;18.206;2023-03-14T09:17:09;0.37;;;0.30;;
8683;SDS011;4379;59.744;18.206;2023-03-14T09:19:36;0.30;;;0.30;;
8683;SDS011;4379;59.744;18.206;2023-03-14T09:22:04;0.37;;;0.37;;
8683;SDS011;4379;59.744;18.206;2023-03-14T09:24:31;0.30;;;0.30;;
8683;SDS011;4379;59.744;18.206;2023-03-14T09:26:59;1.03;;;0.60;;
8683;SDS011;4379;59.744;18.206;2023-03-14T09:29:26;0.20;;;0.20;;
8683;SDS011;4379;59.744;18.206;2023-03-14T09:31:54;0.20;;;0.20;;
8683;SDS011;4379;59.744;18.206;2023-03-14T09:34:21;0.30;;;0.30;;
8683;SDS011;4379;59.744;18.206;2023-03-14T09:36:49;0.30;;;0.30;;
8683;SDS011;4379;59.744;18.206;2023-03-14T09:39:16;0.53;;;0.33;;
8683;SDS011;4379;59.744;18.206;2023-03-14T09:41:44;0.30;;;0.30;;
8683;SDS011;4379;59.744;18.206;2023-03-14T09:44:16;0.30;;;0.30;;
8683;SDS011;4379;59.744;18.206;2023-03-14T09:46:56;0.23;;;0.23;;
8683;SDS011;4379;59.744;18.206;2023-03-14T09:49:28;0.30;;;0.30;;
8683;SDS011;4379;59.744;18.206;2023-03-14T09:51:59;0.20;;;0.20;;
8683;SDS011;4379;59.744;18.206;2023-03-14T09:54:31;0.20;;;0.20;;
8683;SDS011;4379;59.744;18.206;2023-03-14T09:56:58;0.23;;;0.23;;
8683;SDS011;4379;59.744;18.206;2023-03-14T09:59:26;0.30;;;0.30;;
8683;SDS011;4379;59.744;18.206;2023-03-14T10:01:56;0.30;;;0.30;;
8683;SDS011;4379;59.744;18.206;2023-03-14T10:04:27;0.20;;;0.20;;
8683;SDS011;4379;59.744;18.206;2023-03-14T10:06:56;0.20;;;0.20;;
8683;SDS011;4379;59.744;18.206;2023-03-14T10:09:23;0.20;;;0.20;;
8683;SDS011;4379;59.744;18.206;2023-03-14T10:11:54;0.30;;;0.30;;
8683;SDS011;4379;59.744;18.206;2023-03-14T10:14:33;0.30;;;0.30;;
8683;SDS011;4379;59.744;18.206;2023-03-14T10:17:09;0.20;;;0.20;;
8683;SDS011;4379;59.744;18.206;2023-03-14T10:19:57;0.20;;;0.20;;
8683;SDS011;4379;59.744;18.206;2023-03-14T10:22:28;0.30;;;0.30;;
8683;SDS011;4379;59.744;18.206;2023-03-14T10:25:00;0.27;;;0.20;;
8683;SDS011;4379;59.744;18.206;2023-03-14T10:27:34;0.30;;;0.30;;
8683;SDS011;4379;59.744;18.206;2023-03-14T10:30:06;0.20;;;0.20;;
8683;SDS011;4379;59.744;18.206;2023-03-14T10:32:53;0.30;;;0.30;;
8683;SDS011;4379;59.744;18.206;2023-03-14T10:35:21;1.30;;;0.37;;
8683;SDS011;4379;59.744;18.206;2023-03-14T10:40:28;0.20;;;0.20;;
8683;SDS011;4379;59.744;18.206;2023-03-14T10:42:58;0.20;;;0.20;;
8683;SDS011;4379;59.744;18.206;2023-03-14T10:45:43;0.20;;;0.20;;
8683;SDS011;4379;59.744;18.206;2023-03-14T10:48:32;0.20;;;0.20;;
8683;SDS011;4379;59.744;18.206;2023-03-14T10:53:56;13.80;;;5.97;;
8683;SDS011;4379;59.744;18.206;2023-03-14T10:56:33;4.87;;;2.67;;
8683;SDS011;4379;59.744;18.206;2023-03-14T10:59:03;0.40;;;0.40;;
8683;SDS011;4379;59.744;18.206;2023-03-14T11:01:44;13.00;;;4.77;;
8683;SDS011;4379;59.744;18.206;2023-03-14T11:07:03;0.30;;;0.30;;
8683;SDS011;4379;59.744;18.206;2023-03-14T11:10:08;0.40;;;0.40;;
8683;SDS011;4379;59.744;18.206;2023-03-14T11:12:48;0.30;;;0.30;;
8683;SDS011;4379;59.744;18.206;2023-03-14T11:15:19;0.30;;;0.30;;
8683;SDS011;4379;59.744;18.206;2023-03-14T11:29:38;0.30;;;0.30;;
8683;SDS011;4379;59.744;18.206;2023-03-14T11:32:16;0.30;;;0.30;;
8683;SDS011;4379;59.744;18.206;2023-03-14T11:35:11;0.30;;;0.30;;
8683;SDS011;4379;59.744;18.206;2023-03-14T11:40:48;0.37;;;0.37;;
8683;SDS011;4379;59.744;18.206;2023-03-14T11:43:35;1.10;;;0.40;;
8683;SDS011;4379;59.744;18.206;2023-03-14T11:46:23;0.37;;;0.37;;
8683;SDS011;4379;59.744;18.206;2023-03-14T11:51:52;0.40;;;0.40;;
8683;SDS011;4379;59.744;18.206;2023-03-14T11:54:52;0.30;;;0.30;;
8683;SDS011;4379;59.744;18.206;2023-03-14T11:57:23;0.20;;;0.20;;
8683;SDS011;4379;59.744;18.206;2023-03-14T12:05:55;0.43;;;0.30;;
8683;SDS011;4379;59.744;18.206;2023-03-14T12:08:46;0.27;;;0.27;;
8683;SDS011;4379;59.744;18.206;2023-03-14T12:11:18;0.30;;;0.30;;
8683;SDS011;4379;59.744;18.206;2023-03-14T12:14:00;0.20;;;0.20;;
8683;SDS011;4379;59.744;18.206;2023-03-14T12:16:40;0.30;;;0.30;;
8683;SDS011;4379;59.744;18.206;2023-03-14T12:19:21;0.30;;;0.30;;
8683;SDS011;4379;59.744;18.206;2023-03-14T12:21:53;0.30;;;0.30;;
8683;SDS011;4379;59.744;18.206;2023-03-14T12:24:23;0.30;;;0.30;;
8683;SDS011;4379;59.744;18.206;2023-03-14T12:26:56;0.67;;;0.30;;
8683;SDS011;4379;59.744;18.206;2023-03-14T12:29:26;0.63;;;0.30;;
8683;SDS011;4379;59.744;18.206;2023-03-14T12:34:28;0.33;;;0.33;;
8683;SDS011;4379;59.744;18.206;2023-03-14T12:42:37;0.30;;;0.30;;
8683;SDS011;4379;59.744;18.206;2023-03-14T12:50:33;0.37;;;0.37;;
8683;SDS011;4379;59.744;18.206;2023-03-14T12:55:49;0.30;;;0.30;;
8683;SDS011;4379;59.744;18.206;2023-03-14T12:58:39;0.30;;;0.30;;
8683;SDS011;4379;59.744;18.206;2023-03-14T13:01:19;0.30;;;0.30;;
8683;SDS011;4379;59.744;18.206;2023-03-14T13:14:30;0.30;;;0.30;;
8683;SDS011;4379;59.744;18.206;2023-03-14T13:17:01;0.30;;;0.30;;
8683;SDS011;4379;59.744;18.206;2023-03-14T13:19:50;0.40;;;0.40;;
8683;SDS011;4379;59.744;18.206;2023-03-14T13:22:24;0.50;;;0.50;;
8683;SDS011;4379;59.744;18.206;2023-03-14T13:25:02;0.43;;;0.43;;
8683;SDS011;4379;59.744;18.206;2023-03-14T13:27:34;0.40;;;0.40;;
8683;SDS011;4379;59.744;18.206;2023-03-14T13:30:12;0.43;;;0.43;;
8683;SDS011;4379;59.744;18.206;2023-03-14T13:32:42;0.40;;;0.40;;
8683;SDS011;4379;59.744;18.206;2023-03-14T13:35:15;0.40;;;0.40;;
8683;SDS011;4379;59.744;18.206;2023-03-14T13:37:52;0.33;;;0.33;;
8683;SDS011;4379;59.744;18.206;2023-03-14T13:40:36;0.30;;;0.30;;
8683;SDS011;4379;59.744;18.206;2023-03-14T13:43:06;0.40;;;0.40;;
8683;SDS011;4379;59.744;18.206;2023-03-14T13:45:54;0.23;;;0.23;;
8683;SDS011;4379;59.744;18.206;2023-03-14T13:48:26;0.20;;;0.20;;
8683;SDS011;4379;59.744;18.206;2023-03-14T13:50:56;0.30;;;0.30;;
8683;SDS011;4379;59.744;18.206;2023-03-14T13:53:27;0.30;;;0.30;;
8683;SDS011;4379;59.744;18.206;2023-03-14T13:55:55;0.40;;;0.40;;
8683;SDS011;4379;59.744;18.206;2023-03-14T13:58:29;0.37;;;0.37;;
8683;SDS011;4379;59.744;18.206;2023-03-14T14:01:12;0.47;;;0.40;;
8683;SDS011;4379;59.744;18.206;2023-03-14T14:03:40;0.40;;;0.40;;
8683;SDS011;4379;59.744;18.206;2023-03-14T14:06:16;0.40;;;0.40;;
8683;SDS011;4379;59.744;18.206;2023-03-14T14:08:46;0.40;;;0.40;;
8683;SDS011;4379;59.744;18.206;2023-03-14T14:11:48;0.50;;;0.50;;
8683;SDS011;4379;59.744;18.206;2023-03-14T14:14:36;0.40;;;0.40;;
8683;SDS011;4379;59.744;18.206;2023-03-14T14:17:11;0.50;;;0.50;;
8683;SDS011;4379;59.744;18.206;2023-03-14T14:19:42;0.60;;;0.60;;
8683;SDS011;4379;59.744;18.206;2023-03-14T14:22:11;0.40;;;0.40;;
8683;SDS011;4379;59.744;18.206;2023-03-14T14:24:39;0.40;;;0.40;;
8683;SDS011;4379;59.744;18.206;2023-03-14T14:27:09;0.40;;;0.40;;
8683;SDS011;4379;59.744;18.206;2023-03-14T14:29:44;0.50;;;0.50;;
8683;SDS011;4379;59.744;18.206;2023-03-14T14:32:23;0.50;;;0.50;;
8683;SDS011;4379;59.744;18.206;2023-03-14T14:34:57;0.70;;;0.70;;
8683;SDS011;4379;59.744;18.206;2023-03-14T14:37:29;0.60;;;0.60;;
8683;SDS011;4379;59.744;18.206;2023-03-14T14:39:59;0.40;;;0.40;;
8683;SDS011;4379;59.744;18.206;2023-03-14T14:42:42;0.30;;;0.30;;
8683;SDS011;4379;59.744;18.206;2023-03-14T14:45:12;0.50;;;0.50;;
8683;SDS011;4379;59.744;18.206;2023-03-14T14:47:57;0.50;;;0.50;;
8683;SDS011;4379;59.744;18.206;2023-03-14T14:50:37;0.40;;;0.40;;
8683;SDS011;4379;59.744;18.206;2023-03-14T14:55:51;0.60;;;0.60;;
8683;SDS011;4379;59.744;18.206;2023-03-14T15:01:14;0.40;;;0.40;;
8683;SDS011;4379;59.744;18.206;2023-03-14T15:03:52;0.60;;;0.60;;
8683;SDS011;4379;59.744;18.206;2023-03-14T15:06:27;0.40;;;0.40;;
8683;SDS011;4379;59.744;18.206;2023-03-14T15:08:55;0.53;;;0.53;;
8683;SDS011;4379;59.744;18.206;2023-03-14T15:11:25;0.43;;;0.43;;
8683;SDS011;4379;59.744;18.206;2023-03-14T15:13:53;0.40;;;0.40;;
8683;SDS011;4379;59.744;18.206;2023-03-14T15:16:22;0.40;;;0.40;;
8683;SDS011;4379;59.744;18.206;2023-03-14T15:18:53;0.50;;;0.50;;
8683;SDS011;4379;59.744;18.206;2023-03-14T15:21:22;0.50;;;0.50;;
8683;SDS011;4379;59.744;18.206;2023-03-14T15:23:51;0.50;;;0.50;;
8683;SDS011;4379;59.744;18.206;2023-03-14T15:26:19;0.60;;;0.60;;
8683;SDS011;4379;59.744;18.206;2023-03-14T15:28:49;0.50;;;0.50;;
8683;SDS011;4379;59.744;18.206;2023-03-14T15:31:18;0.50;;;0.50;;
8683;SDS011;4379;59.744;18.206;2023-03-14T15:33:48;0.37;;;0.37;;
8683;SDS011;4379;59.744;18.206;2023-03-14T15:36:23;0.40;;;0.40;;
8683;SDS011;4379;59.744;18.206;2023-03-14T15:38:53;0.50;;;0.50;;
8683;SDS011;4379;59.744;18.206;2023-03-14T15:41:22;0.50;;;0.50;;
8683;SDS011;4379;59.744;18.206;2023-03-14T15:43:49;0.47;;;0.47;;
8683;SDS011;4379;59.744;18.206;2023-03-14T15:46:17;0.30;;;0.30;;
8683;SDS011;4379;59.744;18.206;2023-03-14T15:48:45;0.63;;;0.63;;
8683;SDS011;4379;59.744;18.206;2023-03-14T15:51:12;0.50;;;0.50;;
8683;SDS011;4379;59.744;18.206;2023-03-14T15:53:40;0.40;;;0.40;;
8683;SDS011;4379;59.744;18.206;2023-03-14T15:56:13;0.60;;;0.60;;
8683;SDS011;4379;59.744;18.206;2023-03-14T15:58:42;0.57;;;0.50;;
8683;SDS011;4379;59.744;18.206;2023-03-14T16:01:13;0.40;;;0.40;;
8683;SDS011;4379;59.744;18.206;2023-03-14T16:03:45;0.47;;;0.47;;
8683;SDS011;4379;59.744;18.206;2023-03-14T16:06:12;0.70;;;0.70;;
8683;SDS011;4379;59.744;18.206;2023-03-14T16:08:40;0.50;;;0.50;;
8683;SDS011;4379;59.744;18.206;2023-03-14T16:11:12;0.50;;;0.50;;
8683;SDS011;4379;59.744;18.206;2023-03-14T16:13:41;0.50;;;0.50;;
8683;SDS011;4379;59.744;18.206;2023-03-14T16:16:09;0.60;;;0.60;;
8683;SDS011;4379;59.744;18.206;2023-03-14T16:18:39;0.47;;;0.47;;
8683;SDS011;4379;59.744;18.206;2023-03-14T16:21:07;0.30;;;0.30;;
8683;SDS011;4379;59.744;18.206;2023-03-14T16:23:39;0.43;;;0.43;;
8683;SDS011;4379;59.744;18.206;2023-03-14T16:26:08;0.37;;;0.37;;
8683;SDS011;4379;59.744;18.206;2023-03-14T16:28:38;0.30;;;0.30;;
8683;SDS011;4379;59.744;18.206;2023-03-14T16:31:06;0.40;;;0.40;;
8683;SDS011;4379;59.744;18.206;2023-03-14T16:33:36;0.30;;;0.30;;